Terminal Aerodrome Forecast
Issued by NWS Mt. Holly, NJ

Current Version | Previous Version | Text Only | Print | Product List | Glossary On
Versions: 1 2 3 4 5 6 7 8 9 10 11 12 13 14 15 16 17 18 19 20 21 22 23 24 25 26 27 28 29
000
FTUS41 KPHI 250823 AAB
TAFTTN
TAF AMD
KTTN 250823Z 2508/2606 09009KT 5SM -RA BR OVC008
      TEMPO 2508/2512 2SM RA BR OVC006
     FM251800 VRB02KT P6SM OVC010 PROB30 2518/2522 4SM -RA
     FM252200 VRB02KT P6SM OVC015
     FM260100 VRB02KT P6SM OVC050=

USA.gov is the U.S. government's official web portal to all federal, state and local government web resources and services.